sensor_id;sensor_type;location;lat;lon;timestamp;pressure;altitude;pressure_sealevel;temperature;humidity
51249;BME280;39642;47.556;18.728;2023-03-23T00:00:16;99470.34;;;20.56;34.05
51249;BME280;39642;47.556;18.728;2023-03-23T00:02:42;99466.81;;;20.55;34.00
51249;BME280;39642;47.556;18.728;2023-03-23T00:05:09;99464.16;;;20.55;34.03
51249;BME280;39642;47.556;18.728;2023-03-23T00:07:35;99464.16;;;20.55;34.14
51249;BME280;39642;47.556;18.728;2023-03-23T00:10:02;99462.50;;;20.54;33.91
51249;BME280;39642;47.556;18.728;2023-03-23T00:12:30;99460.69;;;20.55;33.94
51249;BME280;39642;47.556;18.728;2023-03-23T00:15:08;99455.41;;;20.55;34.03
51249;BME280;39642;47.556;18.728;2023-03-23T00:17:38;99462.50;;;20.54;34.03
51249;BME280;39642;47.556;18.728;2023-03-23T00:20:06;99459.84;;;20.54;33.86
51249;BME280;39642;47.556;18.728;2023-03-23T00:22:33;99463.41;;;20.53;33.99
51249;BME280;39642;47.556;18.728;2023-03-23T00:25:04;99455.47;;;20.53;33.86
51249;BME280;39642;47.556;18.728;2023-03-23T00:27:30;99463.34;;;20.55;33.90
51249;BME280;39642;47.556;18.728;2023-03-23T00:29:56;99456.34;;;20.54;33.83
51249;BME280;39642;47.556;18.728;2023-03-23T00:32:24;99455.47;;;20.53;33.86
51249;BME280;39642;47.556;18.728;2023-03-23T00:34:55;99457.28;;;20.53;33.85
51249;BME280;39642;47.556;18.728;2023-03-23T00:37:21;99458.25;;;20.52;33.84
51249;BME280;39642;47.556;18.728;2023-03-23T00:39:48;99456.44;;;20.52;33.85
51249;BME280;39642;47.556;18.728;2023-03-23T00:42:15;99456.53;;;20.51;33.77
51249;BME280;39642;47.556;18.728;2023-03-23T00:44:42;99452.97;;;20.52;33.75
51249;BME280;39642;47.556;18.728;2023-03-23T00:47:10;99457.41;;;20.51;33.72
51249;BME280;39642;47.556;18.728;2023-03-23T00:49:36;99449.56;;;20.50;33.87
51249;BME280;39642;47.556;18.728;2023-03-23T00:52:04;99450.41;;;20.50;33.87
51249;BME280;39642;47.556;18.728;2023-03-23T00:54:31;99445.13;;;20.50;33.84
51249;BME280;39642;47.556;18.728;2023-03-23T00:56:57;99440.78;;;20.49;33.83
51249;BME280;39642;47.556;18.728;2023-03-23T00:59:23;99438.97;;;20.50;33.71
51249;BME280;39642;47.556;18.728;2023-03-23T01:01:49;99439.91;;;20.49;33.76
51249;BME280;39642;47.556;18.728;2023-03-23T01:04:16;99435.50;;;20.49;33.65
51249;BME280;39642;47.556;18.728;2023-03-23T01:06:43;99437.25;;;20.49;33.78
51249;BME280;39642;47.556;18.728;2023-03-23T01:09:13;99435.59;;;20.48;33.78
51249;BME280;39642;47.556;18.728;2023-03-23T01:11:45;99431.13;;;20.48;33.67
51249;BME280;39642;47.556;18.728;2023-03-23T01:14:13;99425.84;;;20.48;33.75
51249;BME280;39642;47.556;18.728;2023-03-23T01:16:39;99425.00;;;20.48;33.74
51249;BME280;39642;47.556;18.728;2023-03-23T01:19:05;99425.84;;;20.48;33.72
51249;BME280;39642;47.556;18.728;2023-03-23T01:21:31;99425.84;;;20.48;33.75
51249;BME280;39642;47.556;18.728;2023-03-23T01:23:57;99436.41;;;20.48;33.60
51249;BME280;39642;47.556;18.728;2023-03-23T01:26:26;99421.41;;;20.49;33.72
51249;BME280;39642;47.556;18.728;2023-03-23T01:28:53;99424.03;;;20.49;33.66
51249;BME280;39642;47.556;18.728;2023-03-23T01:31:23;99424.03;;;20.49;33.70
51249;BME280;39642;47.556;18.728;2023-03-23T01:33:49;99421.41;;;20.49;33.59
51249;BME280;39642;47.556;18.728;2023-03-23T01:36:22;99421.41;;;20.49;33.56
51249;BME280;39642;47.556;18.728;2023-03-23T01:38:49;99419.63;;;20.49;33.71
51249;BME280;39642;47.556;18.728;2023-03-23T01:41:17;99416.97;;;20.49;33.57
51249;BME280;39642;47.556;18.728;2023-03-23T01:44:00;99420.47;;;20.50;33.69
51249;BME280;39642;47.556;18.728;2023-03-23T01:46:31;99420.47;;;20.50;33.56
51249;BME280;39642;47.556;18.728;2023-03-23T01:49:02;99419.63;;;20.49;33.57
51249;BME280;39642;47.556;18.728;2023-03-23T01:51:33;99409.88;;;20.50;33.63
51249;BME280;39642;47.556;18.728;2023-03-23T01:54:04;99410.72;;;20.50;33.61
51249;BME280;39642;47.556;18.728;2023-03-23T01:56:38;99410.72;;;20.50;33.55
51249;BME280;39642;47.556;18.728;2023-03-23T01:59:07;99409.03;;;20.49;33.62
51249;BME280;39642;47.556;18.728;2023-03-23T02:01:35;99409.88;;;20.50;33.59
51249;BME280;39642;47.556;18.728;2023-03-23T02:04:04;99409.88;;;20.50;33.57
51249;BME280;39642;47.556;18.728;2023-03-23T02:06:31;99407.31;;;20.48;33.52
51249;BME280;39642;47.556;18.728;2023-03-23T02:08:57;99405.53;;;20.49;33.52
51249;BME280;39642;47.556;18.728;2023-03-23T02:11:23;99405.53;;;20.49;33.49
51249;BME280;39642;47.556;18.728;2023-03-23T02:13:50;99401.19;;;20.48;33.58
51249;BME280;39642;47.556;18.728;2023-03-23T02:16:40;99409.97;;;20.48;33.49
51249;BME280;39642;47.556;18.728;2023-03-23T02:19:30;99409.97;;;20.48;33.43
51249;BME280;39642;47.556;18.728;2023-03-23T02:24:56;99406.50;;;20.48;33.36
51249;BME280;39642;47.556;18.728;2023-03-23T02:27:40;99408.28;;;20.47;33.19
51249;BME280;39642;47.556;18.728;2023-03-23T02:35:55;99408.38;;;20.46;33.22
51249;BME280;39642;47.556;18.728;2023-03-23T02:38:28;99412.81;;;20.45;33.49
51249;BME280;39642;47.556;18.728;2023-03-23T02:40:56;99414.63;;;20.45;33.23
51249;BME280;39642;47.556;18.728;2023-03-23T02:43:27;99412.81;;;20.45;33.32
51249;BME280;39642;47.556;18.728;2023-03-23T02:45:55;99417.28;;;20.45;33.28
51249;BME280;39642;47.556;18.728;2023-03-23T02:48:27;99411.03;;;20.46;33.35
51249;BME280;39642;47.556;18.728;2023-03-23T02:50:54;99414.63;;;20.45;33.32
51249;BME280;39642;47.556;18.728;2023-03-23T02:53:23;99409.34;;;20.45;33.27
51249;BME280;39642;47.556;18.728;2023-03-23T02:55:50;99418.19;;;20.44;33.38
51249;BME280;39642;47.556;18.728;2023-03-23T02:58:19;99417.28;;;20.45;33.30
51249;BME280;39642;47.556;18.728;2023-03-23T03:00:45;99415.56;;;20.44;33.24
51249;BME280;39642;47.556;18.728;2023-03-23T03:03:20;99419.03;;;20.44;33.17
51249;BME280;39642;47.556;18.728;2023-03-23T03:08:53;99425.22;;;20.45;33.32
51249;BME280;39642;47.556;18.728;2023-03-23T03:11:21;99425.22;;;20.45;33.18
51249;BME280;39642;47.556;18.728;2023-03-23T03:19:49;99421.59;;;20.46;33.23
51249;BME280;39642;47.556;18.728;2023-03-23T03:22:18;99423.31;;;20.47;33.07
51249;BME280;39642;47.556;18.728;2023-03-23T03:24:47;99417.16;;;20.46;33.17
51249;BME280;39642;47.556;18.728;2023-03-23T03:27:16;99426.91;;;20.46;33.22
51249;BME280;39642;47.556;18.728;2023-03-23T03:29:47;99426.91;;;20.46;33.17
51249;BME280;39642;47.556;18.728;2023-03-23T03:32:19;99433.91;;;20.47;33.21
51249;BME280;39642;47.556;18.728;2023-03-23T03:34:49;99433.91;;;20.47;33.14
51249;BME280;39642;47.556;18.728;2023-03-23T03:37:17;99433.91;;;20.47;33.12
51249;BME280;39642;47.556;18.728;2023-03-23T03:39:44;99432.19;;;20.46;33.13
51249;BME280;39642;47.556;18.728;2023-03-23T03:42:10;99435.66;;;20.46;33.14
51249;BME280;39642;47.556;18.728;2023-03-23T03:44:36;99433.97;;;20.45;33.13
51249;BME280;39642;47.556;18.728;2023-03-23T03:47:02;99433.97;;;20.45;33.17
51249;BME280;39642;47.556;18.728;2023-03-23T03:49:28;99441.91;;;20.45;33.10
51249;BME280;39642;47.556;18.728;2023-03-23T03:51:54;99435.78;;;20.45;33.12
51249;BME280;39642;47.556;18.728;2023-03-23T03:54:20;99433.12;;;20.45;33.08
51249;BME280;39642;47.556;18.728;2023-03-23T03:56:45;99443.72;;;20.45;33.14
51249;BME280;39642;47.556;18.728;2023-03-23T03:59:12;99436.72;;;20.44;33.13
51249;BME280;39642;47.556;18.728;2023-03-23T04:01:38;99434.06;;;20.44;33.14
51249;BME280;39642;47.556;18.728;2023-03-23T04:04:04;99436.72;;;20.44;33.00
51249;BME280;39642;47.556;18.728;2023-03-23T04:06:33;99442.00;;;20.44;33.09
51249;BME280;39642;47.556;18.728;2023-03-23T04:09:04;99439.38;;;20.44;33.14
51249;BME280;39642;47.556;18.728;2023-03-23T04:11:32;99449.09;;;20.43;32.93
51249;BME280;39642;47.556;18.728;2023-03-23T04:13:58;99447.28;;;20.44;32.98
51249;BME280;39642;47.556;18.728;2023-03-23T04:16:24;99442.97;;;20.43;32.99
51249;BME280;39642;47.556;18.728;2023-03-23T04:18:51;99447.38;;;20.42;32.91
51249;BME280;39642;47.556;18.728;2023-03-23T04:21:17;99438.59;;;20.42;32.88
51249;BME280;39642;47.556;18.728;2023-03-23T04:23:43;99443.91;;;20.42;32.95
51249;BME280;39642;47.556;18.728;2023-03-23T04:26:09;99445.63;;;20.43;32.96
51249;BME280;39642;47.556;18.728;2023-03-23T04:28:39;99439.56;;;20.41;33.07
51249;BME280;39642;47.556;18.728;2023-03-23T04:31:06;99437.75;;;20.41;33.02
51249;BME280;39642;47.556;18.728;2023-03-23T04:33:32;99442.09;;;20.42;32.86
51249;BME280;39642;47.556;18.728;2023-03-23T04:36:00;99440.41;;;20.41;33.03
51249;BME280;39642;47.556;18.728;2023-03-23T04:38:27;99436.81;;;20.42;32.96
51249;BME280;39642;47.556;18.728;2023-03-23T04:40:54;99442.09;;;20.42;32.91
51249;BME280;39642;47.556;18.728;2023-03-23T04:43:22;99441.25;;;20.42;32.77
51249;BME280;39642;47.556;18.728;2023-03-23T04:45:57;99443.91;;;20.42;32.77
51249;BME280;39642;47.556;18.728;2023-03-23T04:48:28;99441.25;;;20.42;32.95
51249;BME280;39642;47.556;18.728;2023-03-23T04:50:55;99443.81;;;20.43;32.93
51249;BME280;39642;47.556;18.728;2023-03-23T04:53:21;99445.63;;;20.43;32.88
51249;BME280;39642;47.556;18.728;2023-03-23T04:55:48;99441.25;;;20.42;32.93
51249;BME280;39642;47.556;18.728;2023-03-23T04:58:15;99444.75;;;20.42;32.95
51249;BME280;39642;47.556;18.728;2023-03-23T05:00:42;99445.69;;;20.41;32.81
51249;BME280;39642;47.556;18.728;2023-03-23T05:03:19;99435.03;;;20.43;32.95
51249;BME280;39642;47.556;18.728;2023-03-23T05:05:46;99436.81;;;20.42;32.73
51249;BME280;39642;47.556;18.728;2023-03-23T05:08:22;99434.16;;;20.42;32.67
51249;BME280;39642;47.556;18.728;2023-03-23T05:10:55;99443.91;;;20.42;32.84
51249;BME280;39642;47.556;18.728;2023-03-23T05:13:22;99439.44;;;20.42;32.89
51249;BME280;39642;47.556;18.728;2023-03-23T05:15:48;99444.75;;;20.42;32.89
51249;BME280;39642;47.556;18.728;2023-03-23T05:18:15;99442.09;;;20.42;32.81
51249;BME280;39642;47.556;18.728;2023-03-23T05:20:41;99445.63;;;20.43;32.81
51249;BME280;39642;47.556;18.728;2023-03-23T05:23:09;99445.63;;;20.43;32.89
51249;BME280;39642;47.556;18.728;2023-03-23T05:25:36;99439.44;;;20.42;32.91
51249;BME280;39642;47.556;18.728;2023-03-23T05:28:14;99439.38;;;20.44;32.81
51249;BME280;39642;47.556;18.728;2023-03-23T05:30:40;99443.81;;;20.43;32.78
51249;BME280;39642;47.556;18.728;2023-03-23T05:33:06;99443.81;;;20.43;32.80
51249;BME280;39642;47.556;18.728;2023-03-23T05:35:32;99445.50;;;20.44;32.79
51249;BME280;39642;47.556;18.728;2023-03-23T05:37:58;99444.66;;;20.44;32.66
51249;BME280;39642;47.556;18.728;2023-03-23T05:40:24;99440.19;;;20.44;32.69
51249;BME280;39642;47.556;18.728;2023-03-23T05:42:52;99445.41;;;20.46;32.67
51249;BME280;39642;47.556;18.728;2023-03-23T05:45:18;99448.06;;;20.46;32.84
51249;BME280;39642;47.556;18.728;2023-03-23T05:47:45;99442.75;;;20.46;32.40
51249;BME280;39642;47.556;18.728;2023-03-23T05:50:12;99451.44;;;20.48;34.21
51249;BME280;39642;47.556;18.728;2023-03-23T05:52:39;99439.06;;;20.48;34.41
51249;BME280;39642;47.556;18.728;2023-03-23T05:55:06;99444.28;;;20.50;33.77
51249;BME280;39642;47.556;18.728;2023-03-23T05:57:33;99446.81;;;20.51;33.18
51249;BME280;39642;47.556;18.728;2023-03-23T05:59:59;99444.28;;;20.50;33.21
51249;BME280;39642;47.556;18.728;2023-03-23T06:02:25;99458.25;;;20.52;33.45
51249;BME280;39642;47.556;18.728;2023-03-23T06:04:54;99455.69;;;20.50;33.87
51249;BME280;39642;47.556;18.728;2023-03-23T06:07:25;99450.41;;;20.50;33.93
51249;BME280;39642;47.556;18.728;2023-03-23T06:09:52;99452.13;;;20.51;34.24
51249;BME280;39642;47.556;18.728;2023-03-23T06:12:18;99452.84;;;20.53;34.13
51249;BME280;39642;47.556;18.728;2023-03-23T06:14:46;99456.22;;;20.55;33.99
51249;BME280;39642;47.556;18.728;2023-03-23T06:17:16;99452.69;;;20.56;34.22
51249;BME280;39642;47.556;18.728;2023-03-23T06:19:43;99449.19;;;20.56;34.07
51249;BME280;39642;47.556;18.728;2023-03-23T06:22:11;99445.66;;;20.55;34.26
51249;BME280;39642;47.556;18.728;2023-03-23T06:28:28;99447.31;;;20.58;34.54
51249;BME280;39642;47.556;18.728;2023-03-23T07:16:15;99469.16;;;21.29;34.15
51249;BME280;39642;47.556;18.728;2023-03-23T07:18:41;99469.16;;;21.29;34.15
51249;BME280;39642;47.556;18.728;2023-03-23T07:21:07;99472.56;;;20.76;34.53
51249;BME280;39642;47.556;18.728;2023-03-23T07:23:33;99473.41;;;20.77;34.77
51249;BME280;39642;47.556;18.728;2023-03-23T07:25:59;99475.84;;;20.80;34.68
51249;BME280;39642;47.556;18.728;2023-03-23T07:28:26;99477.56;;;20.81;34.76
51249;BME280;39642;47.556;18.728;2023-03-23T07:30:52;99476.59;;;20.82;34.49
51249;BME280;39642;47.556;18.728;2023-03-23T07:33:18;99480.09;;;20.83;34.45
51249;BME280;39642;47.556;18.728;2023-03-23T07:35:44;99490.81;;;20.81;34.45
51249;BME280;39642;47.556;18.728;2023-03-23T07:38:10;99488.03;;;20.83;34.35
51249;BME280;39642;47.556;18.728;2023-03-23T07:40:36;99487.00;;;20.85;34.44
51249;BME280;39642;47.556;18.728;2023-03-23T07:43:03;99493.16;;;20.86;34.41
51249;BME280;39642;47.556;18.728;2023-03-23T07:45:30;99485.84;;;20.89;34.79
51249;BME280;39642;47.556;18.728;2023-03-23T07:47:56;99485.75;;;20.91;34.30
51249;BME280;39642;47.556;18.728;2023-03-23T07:50:23;99488.41;;;20.91;34.69
51249;BME280;39642;47.556;18.728;2023-03-23T07:52:51;99489.25;;;20.91;34.61
51249;BME280;39642;47.556;18.728;2023-03-23T07:55:18;99491.50;;;20.97;36.22
51249;BME280;39642;47.556;18.728;2023-03-23T07:57:45;99490.06;;;21.06;35.48
51249;BME280;39642;47.556;18.728;2023-03-23T08:00:13;99496.00;;;21.10;35.06
51249;BME280;39642;47.556;18.728;2023-03-23T08:02:49;99488.91;;;21.10;35.35
51249;BME280;39642;47.556;18.728;2023-03-23T08:05:16;99497.03;;;21.07;35.26
51249;BME280;39642;47.556;18.728;2023-03-23T08:07:43;99491.94;;;21.04;34.83
51249;BME280;39642;47.556;18.728;2023-03-23T08:10:14;99493.94;;;21.00;35.03
51249;BME280;39642;47.556;18.728;2023-03-23T08:12:42;99493.09;;;21.00;34.74
51249;BME280;39642;47.556;18.728;2023-03-23T08:15:10;99495.56;;;21.03;34.92
51249;BME280;39642;47.556;18.728;2023-03-23T08:17:40;99496.28;;;21.05;34.85
51249;BME280;39642;47.556;18.728;2023-03-23T08:20:07;99504.13;;;21.07;34.82
51249;BME280;39642;47.556;18.728;2023-03-23T08:22:39;99496.28;;;21.05;35.01
51249;BME280;39642;47.556;18.728;2023-03-23T08:25:06;99500.63;;;21.06;34.62
51249;BME280;39642;47.556;18.728;2023-03-23T08:27:33;99498.84;;;21.07;34.70
51249;BME280;39642;47.556;18.728;2023-03-23T08:29:59;99494.28;;;21.09;34.76
51249;BME280;39642;47.556;18.728;2023-03-23T08:32:26;99500.34;;;21.11;34.84
51249;BME280;39642;47.556;18.728;2023-03-23T08:34:52;99492.31;;;21.12;34.94
51249;BME280;39642;47.556;18.728;2023-03-23T08:37:18;99488.69;;;21.13;35.10
51249;BME280;39642;47.556;18.728;2023-03-23T08:39:45;99494.75;;;21.15;34.85
51249;BME280;39642;47.556;18.728;2023-03-23T08:42:11;99498.22;;;21.16;35.03
51249;BME280;39642;47.556;18.728;2023-03-23T08:44:37;99498.97;;;21.18;35.39
51249;BME280;39642;47.556;18.728;2023-03-23T08:47:03;99493.28;;;21.24;35.79
51249;BME280;39642;47.556;18.728;2023-03-23T08:49:31;99492.53;;;21.22;35.86
51249;BME280;39642;47.556;18.728;2023-03-23T08:51:59;99496.78;;;21.25;35.47
51249;BME280;39642;47.556;18.728;2023-03-23T08:54:25;99493.38;;;21.23;35.44
51249;BME280;39642;47.556;18.728;2023-03-23T08:56:52;99497.00;;;21.21;35.13
51249;BME280;39642;47.556;18.728;2023-03-23T08:59:18;99490.72;;;21.23;34.04
51249;BME280;39642;47.556;18.728;2023-03-23T09:01:44;99487.25;;;21.22;34.23
51249;BME280;39642;47.556;18.728;2023-03-23T09:04:11;99489.87;;;21.22;35.92
51249;BME280;39642;47.556;18.728;2023-03-23T09:06:37;99486.84;;;21.28;37.49
51249;BME280;39642;47.556;18.728;2023-03-23T09:09:04;99490.34;;;21.29;37.00
51249;BME280;39642;47.556;18.728;2023-03-23T09:11:35;99488.53;;;21.29;37.08
51249;BME280;39642;47.556;18.728;2023-03-23T09:14:03;99488.44;;;21.31;37.03
51249;BME280;39642;47.556;18.728;2023-03-23T09:16:30;99477.84;;;21.31;36.77
51249;BME280;39642;47.556;18.728;2023-03-23T09:18:57;99470.81;;;21.30;36.63
51249;BME280;39642;47.556;18.728;2023-03-23T09:21:24;99476.13;;;21.30;36.48
51249;BME280;39642;47.556;18.728;2023-03-23T09:23:51;99477.84;;;21.31;36.27
51249;BME280;39642;47.556;18.728;2023-03-23T09:26:17;99472.53;;;21.31;35.75
51249;BME280;39642;47.556;18.728;2023-03-23T09:28:43;99476.13;;;21.30;35.39
51249;BME280;39642;47.556;18.728;2023-03-23T09:31:11;99470.00;;;21.29;35.16
51249;BME280;39642;47.556;18.728;2023-03-23T09:33:38;99464.78;;;21.28;34.88
51249;BME280;39642;47.556;18.728;2023-03-23T09:36:04;99478.16;;;21.26;34.82
51249;BME280;39642;47.556;18.728;2023-03-23T09:38:31;99473.78;;;21.25;34.84
51249;BME280;39642;47.556;18.728;2023-03-23T09:41:26;99481.72;;;21.25;34.72
51249;BME280;39642;47.556;18.728;2023-03-23T09:49:54;99475.37;;;21.28;35.83
51249;BME280;39642;47.556;18.728;2023-03-23T09:52:21;99473.78;;;21.25;35.34
51249;BME280;39642;47.556;18.728;2023-03-23T09:54:53;99465.09;;;21.23;35.26
51249;BME280;39642;47.556;18.728;2023-03-23T09:57:32;99465.41;;;21.18;34.65
51249;BME280;39642;47.556;18.728;2023-03-23T10:00:12;99461.28;;;21.14;34.71
51249;BME280;39642;47.556;18.728;2023-03-23T10:05:35;99459.56;;;21.13;35.16
51249;BME280;39642;47.556;18.728;2023-03-23T10:08:10;99464.03;;;21.13;34.51
51249;BME280;39642;47.556;18.728;2023-03-23T10:11:03;99452.59;;;21.12;34.16
51249;BME280;39642;47.556;18.728;2023-03-23T10:16:29;99442.41;;;21.06;33.06
51249;BME280;39642;47.556;18.728;2023-03-23T10:21:52;99446.94;;;21.04;33.99
51249;BME280;39642;47.556;18.728;2023-03-23T10:24:34;99440.91;;;21.02;34.03
51249;BME280;39642;47.556;18.728;2023-03-23T10:30:01;99439.31;;;20.99;34.28
51249;BME280;39642;47.556;18.728;2023-03-23T10:33:05;99437.91;;;20.94;32.56
51249;BME280;39642;47.556;18.728;2023-03-23T10:35:57;99427.13;;;20.97;33.03
51249;BME280;39642;47.556;18.728;2023-03-23T10:38:34;99432.13;;;21.02;33.67
51249;BME280;39642;47.556;18.728;2023-03-23T10:41:10;99436.16;;;21.07;33.43
51249;BME280;39642;47.556;18.728;2023-03-23T10:43:38;99432.47;;;21.10;34.11
51249;BME280;39642;47.556;18.728;2023-03-23T10:49:08;99424.09;;;21.16;36.91
51249;BME280;39642;47.556;18.728;2023-03-23T10:51:41;99428.16;;;21.21;35.32
51249;BME280;39642;47.556;18.728;2023-03-23T10:54:09;99423.78;;;21.20;34.76
51249;BME280;39642;47.556;18.728;2023-03-23T10:56:41;99420.38;;;21.18;34.49
51249;BME280;39642;47.556;18.728;2023-03-23T10:59:19;99420.50;;;21.17;34.07
51249;BME280;39642;47.556;18.728;2023-03-23T11:01:51;99415.31;;;21.15;32.92
51249;BME280;39642;47.556;18.728;2023-03-23T11:04:18;99412.75;;;21.14;32.73
51249;BME280;39642;47.556;18.728;2023-03-23T11:06:48;99411.06;;;21.13;32.55
51249;BME280;39642;47.556;18.728;2023-03-23T11:09:16;99406.72;;;21.12;32.67
51249;BME280;39642;47.556;18.728;2023-03-23T11:11:51;99400.56;;;21.11;32.72
51249;BME280;39642;47.556;18.728;2023-03-23T11:14:26;99405.03;;;21.11;32.50
51249;BME280;39642;47.556;18.728;2023-03-23T11:17:04;99400.47;;;21.13;32.70
51249;BME280;39642;47.556;18.728;2023-03-23T11:19:34;99392.63;;;21.11;32.33
51249;BME280;39642;47.556;18.728;2023-03-23T11:24:33;99402.47;;;21.09;32.06
51249;BME280;39642;47.556;18.728;2023-03-23T11:27:00;99399.84;;;21.09;32.10
51249;BME280;39642;47.556;18.728;2023-03-23T11:29:27;99399.09;;;21.07;32.08
51249;BME280;39642;47.556;18.728;2023-03-23T11:34:41;99400.06;;;21.06;31.96
51249;BME280;39642;47.556;18.728;2023-03-23T11:37:10;99396.66;;;21.04;32.27
51249;BME280;39642;47.556;18.728;2023-03-23T11:39:58;99400.78;;;21.08;33.97
51249;BME280;39642;47.556;18.728;2023-03-23T11:42:35;99400.47;;;21.13;34.56
51249;BME280;39642;47.556;18.728;2023-03-23T11:45:37;99392.44;;;21.14;34.27
51249;BME280;39642;47.556;18.728;2023-03-23T11:48:38;99394.34;;;21.12;35.34
51249;BME280;39642;47.556;18.728;2023-03-23T11:51:05;99391.37;;;21.30;38.29
51249;BME280;39642;47.556;18.728;2023-03-23T11:53:54;99378.88;;;21.32;36.12
51249;BME280;39642;47.556;18.728;2023-03-23T11:58:56;99367.78;;;21.27;35.86
51249;BME280;39642;47.556;18.728;2023-03-23T12:26:01;99344.38;;;21.33;32.36
51249;BME280;39642;47.556;18.728;2023-03-23T12:32:15;99335.47;;;21.34;34.06
51249;BME280;39642;47.556;18.728;2023-03-23T12:39:58;99320.97;;;21.40;33.67
51249;BME280;39642;47.556;18.728;2023-03-23T12:50:39;99305.81;;;21.29;31.65
51249;BME280;39642;47.556;18.728;2023-03-23T12:55:46;99308.88;;;21.23;33.34
51249;BME280;39642;47.556;18.728;2023-03-23T12:58:21;99305.38;;;21.23;34.17
51249;BME280;39642;47.556;18.728;2023-03-23T13:01:01;99307.28;;;21.20;33.18
51249;BME280;39642;47.556;18.728;2023-03-23T13:08:42;99303.28;;;21.15;31.72
51249;BME280;39642;47.556;18.728;2023-03-23T13:11:18;99315.66;;;21.14;31.88
51249;BME280;39642;47.556;18.728;2023-03-23T13:16:31;99311.62;;;21.09;32.20
51249;BME280;39642;47.556;18.728;2023-03-23T13:19:09;99308.16;;;21.08;32.38
51249;BME280;39642;47.556;18.728;2023-03-23T13:21:53;99307.31;;;21.08;32.46
51249;BME280;39642;47.556;18.728;2023-03-23T13:24:26;99300.09;;;21.10;32.88
51249;BME280;39642;47.556;18.728;2023-03-23T13:26:53;99291.41;;;21.08;31.98
51249;BME280;39642;47.556;18.728;2023-03-23T13:29:24;99288.88;;;21.06;32.15
51249;BME280;39642;47.556;18.728;2023-03-23T13:31:51;99292.44;;;21.05;32.74
51249;BME280;39642;47.556;18.728;2023-03-23T13:34:22;99286.00;;;21.09;33.29
51249;BME280;39642;47.556;18.728;2023-03-23T13:36:55;99281.44;;;21.11;33.37
51249;BME280;39642;47.556;18.728;2023-03-23T13:39:31;99277.13;;;21.10;33.50
51249;BME280;39642;47.556;18.728;2023-03-23T13:42:03;99275.97;;;21.14;33.17
51249;BME280;39642;47.556;18.728;2023-03-23T13:55:39;99261.34;;;21.21;34.02
51249;BME280;39642;47.556;18.728;2023-03-23T14:03:01;99271.59;;;21.26;33.45
51249;BME280;39642;47.556;18.728;2023-03-23T14:05:41;99258.25;;;21.28;33.35
51249;BME280;39642;47.556;18.728;2023-03-23T14:10:36;99270.44;;;21.30;33.04
51249;BME280;39642;47.556;18.728;2023-03-23T14:13:06;99268.84;;;21.28;33.66
51249;BME280;39642;47.556;18.728;2023-03-23T14:15:55;99268.22;;;21.24;34.35
51249;BME280;39642;47.556;18.728;2023-03-23T14:18:25;99269.28;;;21.21;34.96
51249;BME280;39642;47.556;18.728;2023-03-23T14:20:52;99268.72;;;21.16;34.98
51249;BME280;39642;47.556;18.728;2023-03-23T14:23:19;99261.84;;;21.14;35.59
51249;BME280;39642;47.556;18.728;2023-03-23T14:25:54;99262.91;;;21.11;36.08
51249;BME280;39642;47.556;18.728;2023-03-23T14:28:21;99261.34;;;21.09;37.32
51249;BME280;39642;47.556;18.728;2023-03-23T14:30:52;99253.50;;;21.07;37.60
51249;BME280;39642;47.556;18.728;2023-03-23T14:33:19;99251.81;;;21.06;37.14
51249;BME280;39642;47.556;18.728;2023-03-23T14:35:46;99250.00;;;21.07;35.52
51249;BME280;39642;47.556;18.728;2023-03-23T14:38:20;99248.09;;;21.09;36.79
51249;BME280;39642;47.556;18.728;2023-03-23T14:40:49;99246.28;;;21.09;38.35
51249;BME280;39642;47.556;18.728;2023-03-23T14:43:17;99248.19;;;21.07;37.56
51249;BME280;39642;47.556;18.728;2023-03-23T14:45:46;99251.72;;;21.08;37.92
51249;BME280;39642;47.556;18.728;2023-03-23T14:48:14;99254.47;;;21.06;37.75
51249;BME280;39642;47.556;18.728;2023-03-23T14:50:49;99257.09;;;21.06;39.01
51249;BME280;39642;47.556;18.728;2023-03-23T14:53:31;99258.78;;;21.07;38.63
51249;BME280;39642;47.556;18.728;2023-03-23T14:56:06;99260.59;;;21.07;35.78
51249;BME280;39642;47.556;18.728;2023-03-23T14:58:32;99253.72;;;21.04;34.46
51249;BME280;39642;47.556;18.728;2023-03-23T15:03:37;99258.03;;;21.05;35.72
51249;BME280;39642;47.556;18.728;2023-03-23T15:06:13;99261.87;;;21.01;34.62
51249;BME280;39642;47.556;18.728;2023-03-23T15:08:40;99261.13;;;20.99;35.91
51249;BME280;39642;47.556;18.728;2023-03-23T15:11:22;99258.47;;;20.99;37.00
51249;BME280;39642;47.556;18.728;2023-03-23T15:13:52;99256.03;;;20.96;36.52
51249;BME280;39642;47.556;18.728;2023-03-23T15:16:24;99246.72;;;20.90;37.03
51249;BME280;39642;47.556;18.728;2023-03-23T15:18:54;99247.03;;;20.86;37.75
51249;BME280;39642;47.556;18.728;2023-03-23T15:21:24;99252.44;;;20.84;38.31
51249;BME280;39642;47.556;18.728;2023-03-23T15:23:52;99256.97;;;20.82;39.16
51249;BME280;39642;47.556;18.728;2023-03-23T15:29:24;99242.06;;;20.68;38.35
51249;BME280;39642;47.556;18.728;2023-03-23T15:31:53;99252.94;;;20.64;37.86
51249;BME280;39642;47.556;18.728;2023-03-23T15:34:32;99242.47;;;20.62;37.66
51249;BME280;39642;47.556;18.728;2023-03-23T15:37:03;99246.91;;;20.62;37.04
51249;BME280;39642;47.556;18.728;2023-03-23T15:39:31;99247.97;;;20.59;36.01
51249;BME280;39642;47.556;18.728;2023-03-23T15:41:58;99244.56;;;20.57;35.38
51249;BME280;39642;47.556;18.728;2023-03-23T15:44:30;99256.00;;;20.57;35.89
51249;BME280;39642;47.556;18.728;2023-03-23T15:47:17;99248.94;;;20.58;35.43
51249;BME280;39642;47.556;18.728;2023-03-23T15:49:45;99256.75;;;20.59;34.94
51249;BME280;39642;47.556;18.728;2023-03-23T15:52:12;99247.75;;;20.62;36.92
51249;BME280;39642;47.556;18.728;2023-03-23T15:54:38;99250.31;;;20.64;37.33